Time;durP1;ratioP1;P1;durP2;ratioP2;P2;SDS_P1;SDS_P2;PMS_P1;PMS_P2;Temp;Humidity;BMP_temperature;BMP_pressure;BME280_temperature;BME280_humidity;BME280_pressure;Samples;Min_cycle;Max_cycle;Signal;HPM_P1;HPM_P2
2022/04/05 00:01:03;;;;;;;55.63;35.13;;;;;;;;;;5072157;28;20031;-75
2022/04/05 00:03:30;;;;;;;77.40;48.78;;;;;;;;;;5072302;28;20415;-77
2022/04/05 00:05:56;;;;;;;60.15;48.35;;;;;;;;;;5072244;28;20020;-76
2022/04/05 00:08:22;;;;;;;42.05;28.88;;;;;;;;;;5072213;28;20470;-75
2022/04/05 00:10:48;;;;;;;46.45;29.52;;;;;;;;;;5073449;28;20032;-76
2022/04/05 00:13:14;;;;;;;42.67;28.33;;;;;;;;;;5075614;28;20042;-76
2022/04/05 00:15:40;;;;;;;42.92;27.30;;;204.80;1894.40;;;;;;5075653;28;20033;-74
2022/04/05 00:18:06;;;;;;;41.60;26.75;;;;;;;;;;5075533;28;20024;-76
2022/04/05 00:20:32;;;;;;;45.85;28.88;;;204.90;1894.40;;;;;;5075613;28;20521;-73
2022/04/05 00:22:58;;;;;;;40.65;28.13;;;205.00;1868.80;;;;;;5075525;28;20063;-73
2022/04/05 00:25:24;;;;;;;47.70;29.85;;;205.00;1894.40;;;;;;5075547;28;20027;-73
2022/04/05 00:27:50;;;;;;;40.75;26.75;;;205.00;1868.80;;;;;;5075329;28;20021;-73
2022/04/05 00:30:16;;;;;;;40.47;26.85;;;;;;;;;;5075495;28;20021;-75
2022/04/05 00:32:42;;;;;;;48.00;28.83;;;204.80;1894.40;;;;;;5075274;28;20024;-73
2022/04/05 00:35:09;;;;;;;44.83;28.55;;;204.80;1920.00;;;;;;5075486;28;20116;-73
2022/04/05 00:37:36;;;;;;;46.25;29.40;;;204.90;1894.40;;;;;;5075222;28;20052;-73
2022/04/05 00:40:05;;;;;;;47.80;29.70;;;204.90;1894.40;;;;;;5075122;28;20020;-73
2022/04/05 00:42:34;;;;;;;50.95;31.25;;;;;;;;;;5075231;28;20024;-75
2022/04/05 00:45:00;;;;;;;57.53;36.17;;;;;;;;;;5057079;28;20436;-76
2022/04/05 00:47:26;;;;;;;64.70;39.53;;;180.10;1894.40;;;;;;5075474;28;20021;-73
2022/04/05 00:49:53;;;;;;;56.38;36.25;;;180.10;1920.00;;;;;;5075366;28;20504;-73
2022/04/05 00:52:21;;;;;;;56.35;32.88;;;204.80;1920.00;;;;;;5075079;28;20137;-73
2022/04/05 00:54:50;;;;;;;50.75;31.15;;;204.80;1920.00;;;;;;5074930;28;20041;-73
2022/04/05 00:57:19;;;;;;;41.70;25.33;;;204.90;1894.40;;;;;;5074925;28;20103;-72
2022/04/05 00:59:46;;;;;;;35.58;23.38;;;;;;;;;;5075028;28;20020;-76
2022/04/05 01:02:14;;;;;;;30.90;22.20;;;;;;;;;;5074708;28;20031;-76
2022/04/05 01:04:41;;;;;;;32.75;22.70;;;;;;;;;;5074741;28;20483;-76
2022/04/05 01:07:10;;;;;;;31.95;21.75;;;;;;;;;;5074859;28;20024;-75
2022/04/05 01:09:37;;;;;;;31.10;21.70;;;;;;;;;;5056358;28;20044;-75
2022/04/05 01:12:04;;;;;;;28.15;20.73;;;;;;;;;;5074538;28;20047;-75
2022/04/05 01:14:30;;;;;;;28.80;20.42;;;;;;;;;;5074532;28;20028;-76
2022/04/05 01:16:56;;;;;;;26.65;19.60;;;;;;;;;;5074539;28;20024;-74
2022/04/05 01:19:22;;;;;;;29.02;21.40;;;;;;;;;;5074645;28;20033;-74
2022/04/05 01:21:48;;;;;;;30.80;20.95;;;;;;;;;;5073974;28;20024;-75
2022/04/05 01:24:15;;;;;;;32.28;21.48;;;;;;;;;;5074118;28;20378;-76
2022/04/05 01:26:45;;;;;;;31.92;21.98;;;;;;;;;;5074308;28;20367;-76
2022/04/05 01:29:11;;;;;;;34.08;23.52;;;;;;;;;;5074548;28;20051;-76
2022/04/05 01:31:38;;;;;;;31.48;21.77;;;;;;;;;;5074847;28;20021;-77
2022/04/05 01:34:04;;;;;;;31.67;21.88;;;;;;;;;;5074165;28;20355;-74
2022/04/05 01:36:31;;;;;;;31.35;21.63;;;;;;;;;;5074440;28;20025;-74
2022/04/05 01:38:57;;;;;;;33.40;22.35;;;;;;;;;;5074044;28;20025;-74
2022/04/05 01:41:24;;;;;;;33.90;21.02;;;;;;;;;;5074072;28;20055;-76
2022/04/05 01:43:50;;;;;;;29.80;20.63;;;;;;;;;;5074166;28;20025;-75
2022/04/05 01:46:17;;;;;;;33.35;21.52;;;;;;;;;;5073700;28;20059;-74
2022/04/05 01:48:43;;;;;;;29.77;21.45;;;;;;;;;;5073931;28;20059;-74
2022/04/05 01:51:09;;;;;;;36.92;23.17;;;;;;;;;;5073894;28;20028;-75
2022/04/05 01:53:35;;;;;;;31.67;20.58;;;;;;;;;;5073942;28;20427;-75
2022/04/05 01:56:01;;;;;;;30.48;21.05;;;;;;;;;;5073754;28;20037;-74
2022/04/05 01:58:27;;;;;;;29.42;20.52;;;;;;;;;;5073630;28;20057;-75
2022/04/05 02:00:53;;;;;;;29.27;20.63;;;;;;;;;;5073670;28;20055;-76
2022/04/05 02:03:19;;;;;;;29.10;21.05;;;;;;;;;;5073728;28;20106;-76
2022/04/05 02:05:48;;;;;;;29.70;21.08;;;;;;;;;;5073705;28;20035;-77
2022/04/05 02:08:14;;;;;;;31.20;20.00;;;;;;;;;;5073741;28;20052;-75
2022/04/05 02:10:40;;;;;;;28.02;19.63;;;;;;;;;;5073583;28;20036;-76
2022/04/05 02:13:08;;;;;;;27.00;18.85;;;;;;;;;;5073409;28;20021;-76
2022/04/05 02:15:34;;;;;;;26.27;19.27;;;;;;;;;;5073302;28;20028;-75
2022/04/05 02:18:00;;;;;;;26.77;19.35;;;;;;;;;;5073311;28;20029;-74
2022/04/05 02:20:26;;;;;;;30.02;19.05;;;;;;;;;;5073591;28;20028;-76
2022/04/05 02:22:52;;;;;;;28.10;20.60;;;;;;;;;;5073403;28;20020;-75
2022/04/05 02:25:18;;;;;;;33.05;21.00;;;;;;;;;;5073379;28;20078;-76
2022/04/05 02:27:45;;;;;;;29.30;20.13;;;;;;;;;;5073269;28;20020;-76
2022/04/05 02:30:11;;;;;;;28.00;19.33;;;;;;;;;;5073189;28;20443;-76
2022/04/05 02:32:38;;;;;;;25.63;16.85;;;;;;;;;;5073190;28;20056;-76
2022/04/05 02:35:04;;;;;;;24.08;17.55;;;;;;;;;;5072303;28;20039;-76
2022/04/05 02:37:30;;;;;;;26.80;17.90;;;;;;;;;;5073155;28;20024;-75
2022/04/05 02:39:56;;;;;;;25.65;18.50;;;;;;;;;;5073343;28;20382;-75
2022/04/05 02:42:22;;;;;;;29.45;19.85;;;;;;;;;;5073076;28;20017;-76
2022/04/05 02:44:48;;;;;;;27.00;19.23;;;;;;;;;;5073202;28;20517;-74
2022/04/05 02:47:15;;;;;;;27.35;18.70;;;;;;;;;;5073273;28;20021;-75
2022/04/05 02:49:41;;;;;;;28.17;17.92;;;;;;;;;;5073142;28;20378;-74
2022/04/05 02:52:07;;;;;;;25.30;18.42;;;;;;;;;;5073021;28;20028;-74
2022/04/05 02:54:34;;;;;;;28.33;18.95;;;;;;;;;;5072739;28;20478;-74
2022/04/05 02:57:00;;;;;;;24.17;17.08;;;;;;;;;;5072765;28;20478;-76
2022/04/05 02:59:26;;;;;;;24.98;16.95;;;;;;;;;;5072998;28;20025;-76
2022/04/05 03:01:52;;;;;;;24.02;18.73;;;;;;;;;;5072706;28;20032;-75
2022/04/05 03:04:18;;;;;;;27.75;18.90;;;;;;;;;;5072856;28;20028;-76
2022/04/05 03:06:44;;;;;;;26.98;18.25;;;;;;;;;;5072724;28;20094;-76
2022/04/05 03:09:10;;;;;;;24.85;18.30;;;;;;;;;;5072691;28;20083;-76
2022/04/05 03:11:36;;;;;;;25.27;18.58;;;;;;;;;;5072805;28;20359;-75
2022/04/05 03:14:03;;;;;;;24.77;17.85;;;;;;;;;;5072596;28;20055;-76
2022/04/05 03:16:29;;;;;;;29.38;19.20;;;;;;;;;;5072621;28;20082;-76
2022/04/05 03:18:55;;;;;;;28.83;21.20;;;;;;;;;;5072727;28;20539;-76
2022/04/05 03:21:21;;;;;;;29.38;19.98;;;;;;;;;;5072952;28;20041;-76
2022/04/05 03:23:47;;;;;;;29.77;20.13;;;;;;;;;;5072846;28;20125;-74
2022/04/05 03:26:13;;;;;;;35.40;20.38;;;;;;;;;;5072674;28;20020;-76
2022/04/05 03:28:39;;;;;;;33.97;21.05;;;;;;;;;;5072574;28;20066;-76
2022/04/05 03:31:05;;;;;;;33.72;21.25;;;;;;;;;;5072532;28;20505;-76
2022/04/05 03:33:31;;;;;;;30.83;19.63;;;;;;;;;;5072669;28;20411;-76
2022/04/05 03:35:58;;;;;;;27.60;18.92;;;;;;;;;;5072378;28;20040;-76
2022/04/05 03:38:24;;;;;;;29.38;20.13;;;;;;;;;;5072554;28;20489;-75
2022/04/05 03:40:50;;;;;;;33.28;21.90;;;;;;;;;;5072501;28;20032;-75
2022/04/05 03:43:16;;;;;;;31.38;22.10;;;;;;;;;;5054395;28;20070;-76
2022/04/05 03:45:42;;;;;;;33.50;21.67;;;;;;;;;;5073573;28;20051;-76
2022/04/05 03:48:09;;;;;;;30.05;19.05;;;;;;;;;;5076070;28;20029;-76
2022/04/05 03:50:35;;;;;;;29.15;17.33;;;;;;;;;;5058534;28;20497;-75
2022/04/05 03:53:01;;;;;;;24.65;15.35;;;;;;;;;;5076385;28;20029;-76
2022/04/05 03:55:28;;;;;;;27.75;16.70;;;;;;;;;;5076126;28;20029;-75
2022/04/05 03:57:54;;;;;;;28.77;18.80;;;;;;;;;;5076310;28;20024;-76
2022/04/05 04:00:20;;;;;;;24.10;17.10;;;;;;;;;;5076051;28;20032;-76
2022/04/05 04:02:46;;;;;;;30.08;18.02;;;;;;;;;;5075709;28;20035;-76
2022/04/05 04:05:17;;;;;;;24.38;16.60;;;;;;;;;;5075900;28;20021;-75
2022/04/05 04:07:44;;;;;;;24.08;16.67;;;;;;;;;;5075857;28;20032;-77
2022/04/05 04:10:10;;;;;;;29.20;17.70;;;;;;;;;;5075688;28;20052;-76
2022/04/05 04:12:36;;;;;;;29.00;18.30;;;;;;;;;;5075729;28;20043;-76
2022/04/05 04:15:03;;;;;;;29.02;18.73;;;;;;;;;;5075674;28;20561;-75
2022/04/05 04:17:29;;;;;;;24.63;17.70;;;;;;;;;;5075680;28;20037;-76
2022/04/05 04:19:55;;;;;;;27.50;18.55;;;;;;;;;;5076184;28;20024;-76
2022/04/05 04:22:21;;;;;;;32.60;19.48;;;;;;;;;;5075701;28;20027;-76
2022/04/05 04:24:48;;;;;;;30.60;21.35;;;;;;;;;;5075670;28;20051;-76
2022/04/05 04:27:14;;;;;;;31.98;21.95;;;;;;;;;;5075513;28;20417;-75
2022/04/05 04:29:40;;;;;;;31.92;21.30;;;;;;;;;;5076147;28;20025;-76
2022/04/05 04:32:07;;;;;;;31.80;19.80;;;;;;;;;;5075224;28;20056;-75
2022/04/05 04:34:33;;;;;;;32.25;20.27;;;;;;;;;;5075316;28;20067;-76
2022/04/05 04:36:59;;;;;;;30.85;20.58;;;;;;;;;;5057318;28;20479;-76
2022/04/05 04:39:25;;;;;;;22.33;17.85;;;;;;;;;;5075193;28;20028;-76
2022/04/05 04:41:56;;;;;;;28.60;18.35;;;;;;;;;;5075180;28;20024;-75
2022/04/05 04:44:22;;;;;;;29.70;18.13;;;;;;;;;;5075143;28;20028;-76
2022/04/05 04:46:48;;;;;;;35.70;19.42;;;;;;;;;;5075523;28;20081;-76
2022/04/05 04:49:14;;;;;;;36.33;22.92;;;;;;;;;;5075310;28;20035;-77
2022/04/05 04:51:40;;;;;;;42.58;24.98;;;;;;;;;;5057248;28;20029;-76
2022/04/05 04:54:06;;;;;;;45.75;29.42;;;;;;;;;;5074892;28;20078;-76
2022/04/05 04:56:32;;;;;;;50.00;32.90;;;;;;;;;;5074621;28;20501;-75
2022/04/05 04:58:58;;;;;;;50.75;32.47;;;;;;;;;;5074200;28;20046;-76
2022/04/05 05:01:24;;;;;;;52.25;32.30;;;;;;;;;;5074754;28;20509;-76
2022/04/05 05:03:51;;;;;;;41.33;28.02;;;;;;;;;;5074795;28;20154;-76
2022/04/05 05:06:17;;;;;;;36.90;23.55;;;;;;;;;;5074811;28;20458;-75
2022/04/05 05:08:43;;;;;;;35.85;22.17;;;;;;;;;;5074535;28;20033;-76
2022/04/05 05:11:11;;;;;;;40.80;26.38;;;;;;;;;;5074707;28;20025;-76
2022/04/05 05:13:37;;;;;;;43.72;25.45;;;;;;;;;;5074505;28;20025;-76
2022/04/05 05:16:03;;;;;;;42.58;28.60;;;;;;;;;;5074432;28;20506;-75
2022/04/05 05:18:30;;;;;;;49.17;28.83;;;;;;;;;;5074451;28;20444;-74
2022/04/05 05:20:56;;;;;;;46.78;29.30;;;;;;;;;;5056452;28;20078;-74
2022/04/05 05:23:22;;;;;;;43.03;27.58;;;;;;;;;;5074380;28;20047;-74
2022/04/05 05:25:48;;;;;;;43.67;29.98;;;;;;;;;;5074380;28;20135;-74
2022/04/05 05:28:15;;;;;;;63.88;40.70;;;;;;;;;;5074190;28;20028;-76
2022/04/05 05:30:41;;;;;;;56.33;39.65;;;;;;;;;;5074305;28;20352;-75
2022/04/05 05:33:07;;;;;;;48.13;26.60;;;;;;;;;;5074033;28;20025;-74
2022/04/05 05:35:33;;;;;;;45.50;28.00;;;;;;;;;;5074101;28;20505;-75
2022/04/05 05:38:00;;;;;;;34.72;23.90;;;;;;;;;;5074036;28;20074;-76
2022/04/05 05:40:26;;;;;;;57.05;26.23;;;;;;;;;;5073938;28;20385;-75
2022/04/05 05:42:52;;;;;;;38.67;26.02;;;;;;;;;;5073938;28;20428;-75
2022/04/05 05:45:19;;;;;;;44.75;25.80;;;;;;;;;;5073820;28;20025;-75
2022/04/05 05:47:45;;;;;;;36.85;24.67;;;;;;;;;;5073761;28;20028;-76
2022/04/05 05:50:12;;;;;;;41.05;26.60;;;;;;;;;;5073823;28;20103;-73
2022/04/05 05:52:40;;;;;;;57.70;39.08;;;;;;;;;;5073789;28;20028;-74
2022/04/05 05:55:12;;;;;;;50.08;30.95;;;;;;;;;;5055733;28;20044;-76
2022/04/05 05:57:38;;;;;;;42.90;27.42;;;;;;;;;;5073742;28;20029;-76
2022/04/05 06:00:06;;;;;;;77.32;56.45;;;;;;;;;;5074067;28;20069;-76
2022/04/05 06:02:32;;;;;;;59.33;37.20;;;;;;;;;;5073570;28;20103;-74
2022/04/05 06:04:58;;;;;;;52.95;28.73;;;;;;;;;;5073783;28;20123;-76
2022/04/05 06:07:25;;;;;;;54.35;31.50;;;;;;;;;;5073528;28;20402;-76
2022/04/05 06:09:51;;;;;;;46.95;30.38;;;;;;;;;;5073174;28;20041;-76
2022/04/05 06:12:17;;;;;;;67.63;39.85;;;;;;;;;;5073489;28;20085;-77
2022/04/05 06:14:43;;;;;;;61.83;36.78;;;;;;;;;;5055012;28;20105;-75
2022/04/05 06:17:09;;;;;;;46.65;29.65;;;;;;;;;;5073619;28;20454;-75
2022/04/05 06:19:35;;;;;;;56.80;37.17;;;231.30;1920.00;;;;;;5055132;28;20170;-73
2022/04/05 06:22:01;;;;;;;89.18;53.40;;;;;;;;;;5073422;28;20526;-76
2022/04/05 06:24:27;;;;;;;84.45;49.15;;;;;;;;;;5055262;28;20086;-76
2022/04/05 06:26:53;;;;;;;73.68;43.85;;;;;;;;;;5073201;28;20382;-75
2022/04/05 06:29:19;;;;;;;72.50;43.85;;;;;;;;;;5072987;28;20441;-75
2022/04/05 06:31:45;;;;;;;69.55;43.42;;;;;;;;;;5072879;28;20052;-74
2022/04/05 06:34:12;;;;;;;68.82;42.63;;;;;;;;;;5073088;28;20433;-75
2022/04/05 06:36:38;;;;;;;80.78;44.85;;;;;;;;;;5073176;28;20029;-74
2022/04/05 06:39:04;;;;;;;64.18;43.50;;;;;;;;;;5073278;28;20050;-73
2022/04/05 06:41:30;;;;;;;97.03;63.85;;;;;;;;;;5072922;28;20029;-74
2022/04/05 06:43:56;;;;;;;118.22;70.38;;;;;;;;;;5072846;28;20028;-76
2022/04/05 06:46:22;;;;;;;109.10;68.43;;;;;;;;;;5073336;28;20028;-75
2022/04/05 06:48:48;;;;;;;112.22;72.18;;;;;;;;;;5054821;28;20036;-75
2022/04/05 06:51:14;;;;;;;104.85;69.63;;;282.30;1843.20;;;;;;5073001;28;20028;-72
2022/04/05 06:53:39;;;;;;;111.38;70.30;;;282.30;1843.20;;;;;;5073171;28;20509;-72
2022/04/05 06:56:06;;;;;;;113.53;71.03;;;282.50;1817.60;;;;;;5073123;28;20394;-71
2022/04/05 06:58:32;;;;;;;110.45;69.78;;;282.50;1817.60;;;;;;5073349;28;20020;-71
2022/04/05 07:00:58;;;;;;;106.18;71.30;;;307.20;1843.20;;;;;;5072720;28;20021;-72
2022/04/05 07:03:23;;;;;;;109.20;70.00;;;307.30;1843.20;;;;;;5072632;28;20060;-73
2022/04/05 07:05:50;;;;;;;108.57;68.47;;;;;;;;;;5072883;28;20025;-73
2022/04/05 07:08:16;;;;;;;103.82;67.35;;;;;;;;;;5072630;28;20478;-74
2022/04/05 07:10:42;;;;;;;106.07;69.85;;;;;;;;;;5072730;28;20393;-73
2022/04/05 07:13:08;;;;;;;110.72;72.35;;;308.00;2048.00;;;;;;5072544;28;20381;-73
2022/04/05 07:15:34;;;;;;;97.82;65.32;;;;;;;;;;5054215;28;20506;-73
2022/04/05 07:18:00;;;;;;;106.65;68.75;;;;;;;;;;5072411;28;20025;-73
2022/04/05 07:20:26;;;;;;;110.45;67.63;;;;;;;;;;5073168;28;20028;-73
2022/04/05 07:22:52;;;;;;;98.78;64.15;;;;;;;;;;5076604;28;20492;-74
2022/04/05 07:25:20;;;;;;;94.38;61.88;;;;;;;;;;5076644;28;20025;-73
2022/04/05 07:27:46;;;;;;;94.40;60.42;;;;;;;;;;5076477;28;20029;-74
2022/04/05 07:30:13;;;;;;;85.07;56.47;;;333.60;1689.60;;;;;;5076467;28;20047;-71
2022/04/05 07:32:44;;;;;;;95.55;58.28;;;333.70;1664.00;;;;;;5076364;28;20021;-74
2022/04/05 07:35:11;;;;;;;80.95;55.35;;;358.50;1920.00;;;;;;5076265;28;20033;-75
2022/04/05 07:37:38;;;;;;;78.85;51.25;;;;;;;;;;5076284;28;20056;-75
2022/04/05 07:40:05;;;;;;;82.82;50.47;;;;;;;;;;5076595;28;20084;-73
2022/04/05 07:42:32;;;;;;;75.72;48.67;;;;;;;;;;5076455;28;20066;-74
2022/04/05 07:44:58;;;;;;;76.70;49.78;;;;;;;;;;5075856;28;20100;-73
2022/04/05 07:47:24;;;;;;;63.88;43.33;;;;;;;;;;5076163;28;20024;-74
2022/04/05 07:49:50;;;;;;;56.60;38.88;;;;;;;;;;5076271;28;20028;-74
2022/04/05 07:52:17;;;;;;;54.03;37.53;;;;;;;;;;5076273;28;20437;-73
2022/04/05 07:54:43;;;;;;;57.58;34.40;;;;;;;;;;5076227;28;20548;-74
2022/04/05 07:57:10;;;;;;;44.63;33.47;;;;;;;;;;5075968;28;20458;-75
2022/04/05 07:59:36;;;;;;;50.53;30.40;;;;;;;;;;5075784;28;20021;-75
2022/04/05 08:02:03;;;;;;;37.88;27.13;;;;;;;;;;5076285;28;20024;-73
2022/04/05 08:04:29;;;;;;;41.38;28.23;;;;;;;;;;5075722;28;20066;-73
2022/04/05 08:06:55;;;;;;;33.03;22.90;;;;;;;;;;5075936;28;20104;-74
2022/04/05 08:09:21;;;;;;;17.63;12.95;;;;;;;;;;5075901;28;20037;-73
2022/04/05 08:11:47;;;;;;;26.63;18.52;;;;;;;;;;5076111;28;20488;-73
2022/04/05 08:14:14;;;;;;;29.13;19.20;;;;;;;;;;5075903;28;20017;-74
2022/04/05 08:16:40;;;;;;;26.17;18.13;;;;;;;;;;5075681;28;20029;-73
2022/04/05 08:19:06;;;;;;;19.70;12.98;;;;;;;;;;5075732;28;20055;-73
2022/04/05 08:21:33;;;;;;;23.60;14.75;;;;;;;;;;5075427;28;20482;-73
2022/04/05 08:23:59;;;;;;;4.13;3.10;;;;;;;;;;5075349;28;20099;-74
2022/04/05 08:26:25;;;;;;;24.23;6.82;;;;;;;;;;5075520;28;20017;-74
2022/04/05 08:28:55;;;;;;;12.35;5.75;;;;;;;;;;5075428;28;20025;-73
2022/04/05 08:31:21;;;;;;;10.85;4.72;;;435.60;1152.00;;;;;;5075350;28;20016;-74
2022/04/05 08:33:46;;;;;;;6.72;4.07;;;436.10;1100.80;;;;;;5074813;28;20074;-74
2022/04/05 08:36:12;;;;;;;9.45;4.80;;;435.90;1100.80;;;;;;5075378;28;20040;-73
2022/04/05 08:38:40;;;;;;;11.30;5.72;;;;;;;;;;5075346;28;20046;-74
2022/04/05 08:41:06;;;;;;;17.25;6.82;;;;;;;;;;5075030;28;20112;-75
2022/04/05 08:43:33;;;;;;;12.85;6.75;;;;;;;;;;5075121;28;20074;-75
2022/04/05 08:46:01;;;;;;;14.45;5.32;;;;;;;;;;5074730;28;20478;-74
2022/04/05 08:48:28;;;;;;;4.97;3.60;;;;;;;;;;5074819;28;20036;-75
2022/04/05 08:50:55;;;;;;;20.35;5.35;;;;;;;;;;5075161;28;20028;-75
2022/04/05 08:53:21;;;;;;;11.13;3.95;;;461.70;1024.00;;;;;;5056915;28;20063;-73
2022/04/05 08:55:47;;;;;;;8.35;3.45;;;;;;;;;;5074837;28;20080;-73
2022/04/05 08:58:14;;;;;;;8.23;3.53;;;;;;;;;;5074922;28;20108;-74
2022/04/05 09:00:41;;;;;;;11.48;5.15;;;;;;;;;;5074865;28;20420;-74
2022/04/05 09:03:07;;;;;;;27.20;12.20;;;;;;;;;;5074674;28;20024;-74
2022/04/05 09:05:34;;;;;;;18.92;10.63;;;;;;;;;;5074587;28;20051;-75
2022/04/05 09:08:19;;;;;;;13.32;6.53;;;;;;;;;;5074475;28;20086;-74
2022/04/05 09:10:47;;;;;;;7.35;4.30;;;;;;;;;;5074650;28;20035;-75
2022/04/05 09:13:16;;;;;;;6.55;3.30;;;;;;;;;;5075094;28;20358;-75
2022/04/05 09:15:42;;;;;;;10.60;4.15;;;;;;;;;;5074278;28;20059;-75
2022/04/05 09:18:09;;;;;;;5.50;3.63;;;;;;;;;;5074397;28;20048;-75
2022/04/05 09:20:45;;;;;;;14.65;5.50;;;;;;;;;;5074343;28;20036;-75
2022/04/05 09:23:29;;;;;;;7.20;3.17;;;512.60;921.60;;;;;;5074472;28;20374;-73
2022/04/05 09:26:03;;;;;;;8.35;3.75;;;;;;;;;;5074247;28;20046;-75
2022/04/05 09:28:34;;;;;;;15.38;7.22;;;;;;;;;;5074324;28;20032;-74
2022/04/05 09:31:02;;;;;;;6.43;3.38;;;537.60;921.60;;;;;;5074211;28;20099;-73
2022/04/05 09:33:30;;;;;;;13.20;4.78;;;538.00;921.60;;;;;;5074136;28;20505;-74
2022/04/05 09:36:13;;;;;;;8.95;4.10;;;;;;;;;;5073946;28;20036;-74
2022/04/05 09:38:40;;;;;;;7.93;3.88;;;;;;;;;;5074027;28;20112;-74
2022/04/05 09:41:13;;;;;;;7.22;4.05;;;;;;;;;;5073701;28;20029;-74
2022/04/05 09:43:49;;;;;;;5.43;4.13;;;;;;;;;;5073403;28;20519;-75
2022/04/05 09:46:15;;;;;;;8.73;5.28;;;;;;;;;;5073835;28;20036;-74
2022/04/05 09:48:41;;;;;;;16.00;5.28;;;;;;;;;;5073990;28;20036;-74
2022/04/05 09:51:10;;;;;;;13.35;5.28;;;;;;;;;;5073779;28;20498;-74
2022/04/05 09:53:39;;;;;;;11.15;7.68;;;;;;;;;;5055756;28;20020;-74
2022/04/05 09:56:07;;;;;;;4.95;3.50;;;;;;;;;;5073647;28;20032;-74
2022/04/05 09:58:34;;;;;;;4.60;3.38;;;921.80;537.60;;;;;;5055417;28;20540;-73
2022/04/05 10:01:08;;;;;;;12.82;4.22;;;;;;;;;;5073478;28;20021;-73
2022/04/05 10:03:44;;;;;;;12.48;10.27;;;;;;;;;;5074011;28;20025;-74
2022/04/05 10:06:11;;;;;;;4.75;3.83;;;;;;;;;;5073253;28;20017;-74
2022/04/05 10:08:39;;;;;;;7.35;4.57;;;973.70;486.40;;;;;;5073426;28;20058;-73
2022/04/05 10:11:05;;;;;;;8.35;6.18;;;973.70;486.40;;;;;;5073746;28;20081;-73
2022/04/05 10:13:32;;;;;;;11.00;5.20;;;;;;;;;;5073680;28;20074;-74
2022/04/05 10:16:01;;;;;;;15.23;7.15;;;;;;;;;;5073158;28;20051;-74
2022/04/05 10:18:33;;;;;;;8.30;4.57;;;;;;;;;;5073761;28;20369;-75
2022/04/05 10:21:00;;;;;;;6.57;5.03;;;1024.70;435.20;;;;;;5073008;28;20104;-73
2022/04/05 10:23:26;;;;;;;6.03;4.43;;;1024.70;435.20;;;;;;5073230;28;20099;-73
2022/04/05 10:25:53;;;;;;;6.07;4.38;;;1024.50;435.20;;;;;;5073178;28;20048;-73
2022/04/05 10:28:22;;;;;;;6.38;4.78;;;;;;;;;;5072998;28;20453;-74
2022/04/05 10:31:25;;;;;;;6.37;4.27;;;1050.00;435.20;;;;;;5073399;28;20024;-73
2022/04/05 10:34:04;;;;;;;32.85;8.05;;;1050.20;435.20;;;;;;5073095;28;20257;-73
2022/04/05 10:36:32;;;;;;;5.28;4.20;;;1049.70;460.80;;;;;;5073378;28;20041;-73
2022/04/05 10:39:15;;;;;;;9.30;5.45;;;1049.60;460.80;;;;;;5072833;28;20012;-75
2022/04/05 10:41:41;;;;;;;5.35;4.32;;;;;;;;;;5072992;28;20052;-74
2022/04/05 10:44:16;;;;;;;5.00;4.40;;;1075.30;409.60;;;;;;5072975;28;20025;-73
2022/04/05 10:46:55;;;;;;;6.03;4.18;;;1075.90;409.60;;;;;;5072955;28;20039;-74
2022/04/05 10:49:47;;;;;;;5.72;4.20;;;1076.10;409.60;;;;;;5073310;28;20104;-73
2022/04/05 10:52:27;;;;;;;5.68;4.22;;;1100.90;435.20;;;;;;5063588;28;20404;-74
2022/04/05 10:55:02;;;;;;;9.35;8.45;;;1075.80;409.60;;;;;;5072124;28;20386;-75
2022/04/05 10:57:32;;;;;;;5.50;4.05;;;1100.80;435.20;;;;;;5072792;28;20113;-73
2022/04/05 11:00:01;;;;;;;6.93;6.03;;;;;;;;;;5072925;28;20020;-74
2022/04/05 11:02:33;;;;;;;5.50;4.68;;;;;;;;;;5072518;28;20100;-75
2022/04/05 11:05:04;;;;;;;11.85;5.88;;;;;;;;;;5072665;28;20512;-74
2022/04/05 11:07:50;;;;;;;9.32;5.25;;;;;;;;;;5072539;28;20032;-74
2022/04/05 11:10:18;;;;;;;22.17;8.43;;;;;;;;;;5072481;28;20120;-74
2022/04/05 11:12:44;;;;;;;6.85;4.95;;;;;;;;;;5072528;28;20052;-74
2022/04/05 11:15:11;;;;;;;5.43;4.25;;;;;;;;;;5072412;28;20068;-73
2022/04/05 11:17:38;;;;;;;9.82;6.40;;;;;;;;;;5072372;28;20028;-73
2022/04/05 11:20:05;;;;;;;5.32;4.43;;;;;;;;;;5072462;28;20029;-73
2022/04/05 11:22:33;;;;;;;11.02;8.35;;;;;;;;;;5072542;28;20029;-73
2022/04/05 11:25:09;;;;;;;6.78;6.13;;;1050.20;435.20;;;;;;5072361;28;20067;-73
2022/04/05 11:27:44;;;;;;;12.00;8.30;;;;;;;;;;5072632;28;20021;-73
2022/04/05 11:30:26;;;;;;;11.27;6.20;;;;;;;;;;5072200;28;20031;-74
2022/04/05 11:33:17;;;;;;;11.88;9.60;;;;;;;;;;5072369;28;20024;-73
2022/04/05 11:35:43;;;;;;;;;;;;;;;;;;5072853;28;20035;-74
2022/04/05 11:38:38;;;;;;;9.57;5.20;;;999.30;460.80;;;;;;5072204;28;19999;-73
2022/04/05 11:41:28;;;;;;;25.65;21.15;;;999.00;460.80;;;;;;5072218;28;20042;-73
2022/04/05 11:43:59;;;;;;;19.15;15.23;;;998.60;460.80;;;;;;5072208;28;20092;-72
2022/04/05 11:46:36;;;;;;;17.58;12.82;;;998.50;460.80;;;;;;5072171;28;20078;-74
2022/04/05 11:49:06;;;;;;;10.18;6.43;;;;;;;;;;5072163;28;20078;-74
2022/04/05 11:51:35;;;;;;;17.70;11.85;;;973.10;460.80;;;;;;5072269;28;20032;-73
2022/04/05 11:54:08;;;;;;;18.48;7.32;;;;;;;;;;5054200;28;20029;-73
2022/04/05 11:56:35;;;;;;;10.07;8.15;;;;;;;;;;5072120;28;20033;-74
2022/04/05 11:59:02;;;;;;;14.30;8.63;;;;;;;;;;5072212;28;20025;-73
2022/04/05 12:01:29;;;;;;;12.48;7.15;;;;;;;;;;5072001;28;20028;-74
2022/04/05 12:04:00;;;;;;;7.80;5.32;;;922.10;486.40;;;;;;5072115;28;20404;-72
2022/04/05 12:06:29;;;;;;;11.45;7.00;;;;;;;;;;5053982;28;20037;-73
2022/04/05 12:08:56;;;;;;;19.40;8.80;;;;;;;;;;5075608;28;20127;-73
2022/04/05 12:11:24;;;;;;;11.60;7.07;;;;;;;;;;5075848;28;20024;-74
2022/04/05 12:14:01;;;;;;;18.20;12.55;;;871.20;512.00;;;;;;5075749;28;20070;-72
2022/04/05 12:16:42;;;;;;;9.73;7.05;;;871.20;537.60;;;;;;5075453;28;20037;-74
2022/04/05 12:19:08;;;;;;;13.27;6.95;;;870.90;512.00;;;;;;5075619;28;20099;-74
2022/04/05 12:21:34;;;;;;;11.23;7.57;;;;;;;;;;5075575;28;20032;-74
2022/04/05 12:24:00;;;;;;;12.20;6.60;;;870.90;512.00;;;;;;5075411;28;20024;-73
2022/04/05 12:26:31;;;;;;;11.93;7.18;;;870.80;512.00;;;;;;5075565;28;20104;-73
2022/04/05 12:28:59;;;;;;;13.30;8.70;;;870.50;537.60;;;;;;5075597;28;20503;-74
2022/04/05 12:31:29;;;;;;;16.35;9.90;;;;;;;;;;5075307;28;20036;-74
2022/04/05 12:34:09;;;;;;;8.90;6.25;;;845.30;537.60;;;;;;5057410;28;20492;-72
2022/04/05 12:36:40;;;;;;;8.80;5.50;;;845.20;537.60;;;;;;5075264;28;20039;-73
2022/04/05 12:39:15;;;;;;;8.85;5.13;;;845.20;537.60;;;;;;5075181;28;20036;-74
2022/04/05 12:41:41;;;;;;;8.63;4.55;;;844.90;563.20;;;;;;5075294;28;20374;-74
2022/04/05 12:44:10;;;;;;;7.38;5.20;;;;;;;;;;5075057;28;20103;-75
2022/04/05 12:46:49;;;;;;;9.52;6.35;;;820.10;563.20;;;;;;5074925;28;20505;-73
2022/04/05 12:49:21;;;;;;;5.47;4.47;;;;;;;;;;5074820;28;20420;-75
2022/04/05 12:51:48;;;;;;;10.10;7.28;;;;;;;;;;5075335;28;20111;-74
2022/04/05 12:54:28;;;;;;;11.27;5.90;;;;;;;;;;5074962;28;20477;-74
2022/04/05 12:56:54;;;;;;;11.57;10.37;;;;;;;;;;5075102;28;20100;-74
2022/04/05 12:59:26;;;;;;;9.95;8.80;;;;;;;;;;5074816;28;20032;-74
2022/04/05 13:01:56;;;;;;;5.97;4.65;;;;;;;;;;5075133;28;20024;-74
2022/04/05 13:04:25;;;;;;;7.03;3.70;;;;;;;;;;5074718;28;20035;-75
2022/04/05 13:06:53;;;;;;;8.48;5.72;;;;;;;;;;5074756;28;20133;-75
2022/04/05 13:09:27;;;;;;;10.75;6.03;;;;;;;;;;5074492;28;20041;-75
2022/04/05 13:12:06;;;;;;;11.48;4.70;;;;;;;;;;5074593;28;20392;-74
2022/04/05 13:14:32;;;;;;;9.32;3.67;;;;;;;;;;5074475;28;20032;-74
2022/04/05 13:17:02;;;;;;;10.27;7.30;;;;;;;;;;5074209;28;20182;-74
2022/04/05 13:19:27;;;;;;;5.28;3.53;;;716.90;614.40;;;;;;5055724;28;20032;-74
2022/04/05 13:21:54;;;;;;;4.13;3.20;;;;;;;;;;5074336;28;20069;-74
2022/04/05 13:24:27;;;;;;;4.75;2.92;;;717.00;588.80;;;;;;5074511;28;20036;-74
2022/04/05 13:26:55;;;;;;;13.52;5.75;;;;;;;;;;5074441;28;20036;-74
2022/04/05 13:29:24;;;;;;;8.38;5.25;;;;;;;;;;5074198;28;20024;-74
2022/04/05 13:31:52;;;;;;;10.30;5.75;;;;;;;;;;5056079;28;20021;-74
2022/04/05 13:34:23;;;;;;;11.18;5.57;;;691.60;640.00;;;;;;5074312;28;20021;-72
2022/04/05 13:36:50;;;;;;;7.90;4.25;;;691.40;665.60;;;;;;5074253;28;20032;-73
2022/04/05 13:39:16;;;;;;;13.43;9.60;;;;;;;;;;5074020;28;20016;-73
2022/04/05 13:41:46;;;;;;;16.67;9.00;;;;;;;;;;5074094;28;20098;-75
2022/04/05 13:44:13;;;;;;;14.75;7.35;;;;;;;;;;5056084;28;20091;-74
2022/04/05 13:46:39;;;;;;;14.15;5.75;;;;;;;;;;5055373;28;20108;-74
2022/04/05 13:49:10;;;;;;;9.85;5.35;;;640.70;665.60;;;;;;5073871;28;20020;-73
2022/04/05 13:51:37;;;;;;;8.48;3.55;;;;;;;;;;5073772;28;20040;-74
2022/04/05 13:54:03;;;;;;;10.38;4.55;;;;;;;;;;5073839;28;20024;-74
2022/04/05 13:56:29;;;;;;;5.75;3.53;;;;;;;;;;5073646;28;20028;-73